createdAt,value
2023-07-20T00:01:54.051Z,18.30
2023-07-20T00:04:21.100Z,18.20
2023-07-20T00:06:48.018Z,18.20
2023-07-20T00:09:15.148Z,18.20
2023-07-20T00:11:49.637Z,18.20
2023-07-20T00:14:16.620Z,18.20
2023-07-20T00:16:43.581Z,18.20
2023-07-20T00:19:11.453Z,18.20
2023-07-20T00:21:41.842Z,18.20
2023-07-20T00:24:08.796Z,18.20
2023-07-20T00:26:35.835Z,18.10
2023-07-20T00:29:02.738Z,18.10
2023-07-20T00:31:30.410Z,18.00
2023-07-20T00:33:57.293Z,17.80
2023-07-20T00:36:24.485Z,17.80
2023-07-20T00:38:51.705Z,17.80
2023-07-20T00:41:18.591Z,17.70
2023-07-20T00:43:45.555Z,17.70
2023-07-20T00:46:12.942Z,17.70
2023-07-20T00:48:40.798Z,17.70
2023-07-20T00:51:07.912Z,17.70
2023-07-20T00:53:35.071Z,17.60
2023-07-20T00:56:02.393Z,17.50
2023-07-20T00:58:29.482Z,17.40
2023-07-20T01:00:56.389Z,17.20
2023-07-20T01:03:23.314Z,17.20
2023-07-20T01:06:05.717Z,17.30
2023-07-20T01:09:07.232Z,17.30
2023-07-20T01:11:55.822Z,17.30
2023-07-20T01:14:24.410Z,17.20
2023-07-20T01:16:53.389Z,17.30
2023-07-20T01:19:20.424Z,17.10
2023-07-20T01:21:59.420Z,17.00
2023-07-20T01:25:27.343Z,16.90
2023-07-20T01:28:05.683Z,17.00
2023-07-20T01:30:56.112Z,17.00
2023-07-20T01:33:25.402Z,17.00
2023-07-20T01:35:58.956Z,17.10
2023-07-20T01:38:26.674Z,17.00
2023-07-20T01:40:54.038Z,17.00
2023-07-20T01:43:20.929Z,17.00
2023-07-20T01:45:47.931Z,16.90
2023-07-20T01:48:14.998Z,16.90
2023-07-20T01:50:42.062Z,16.80
2023-07-20T01:53:09.480Z,16.70
2023-07-20T01:55:36.382Z,16.70
2023-07-20T01:58:04.537Z,16.60
2023-07-20T02:00:31.583Z,16.50
2023-07-20T02:02:58.567Z,16.50
2023-07-20T02:05:25.811Z,16.40
2023-07-20T02:07:52.729Z,16.40
2023-07-20T02:10:19.659Z,16.50
2023-07-20T02:12:46.609Z,16.60
2023-07-20T02:15:14.451Z,16.50
2023-07-20T02:17:42.399Z,16.50
2023-07-20T02:20:13.701Z,16.40
2023-07-20T02:22:41.554Z,16.40
2023-07-20T02:25:09.213Z,16.40
2023-07-20T02:27:36.480Z,16.40
2023-07-20T02:30:04.291Z,16.40
2023-07-20T02:32:32.940Z,16.30
2023-07-20T02:35:00.063Z,16.30
2023-07-20T02:37:26.948Z,16.30
2023-07-20T02:39:53.806Z,16.30
2023-07-20T02:42:20.707Z,16.30
2023-07-20T02:44:47.653Z,16.20
2023-07-20T02:47:14.701Z,16.20
2023-07-20T02:49:41.632Z,16.20
2023-07-20T02:52:08.570Z,16.10
2023-07-20T02:54:35.428Z,16.00
2023-07-20T02:57:02.554Z,15.90
2023-07-20T02:59:30.337Z,15.80
2023-07-20T03:01:58.744Z,15.90
2023-07-20T03:04:28.877Z,15.80
2023-07-20T03:06:55.815Z,15.90
2023-07-20T03:09:23.209Z,15.90
2023-07-20T03:11:51.565Z,15.90
2023-07-20T03:14:18.449Z,15.90
2023-07-20T03:16:45.337Z,15.90
2023-07-20T03:19:12.645Z,15.90
2023-07-20T03:21:42.073Z,15.90
2023-07-20T03:24:10.137Z,15.90
2023-07-20T03:26:37.976Z,15.90
2023-07-20T03:29:06.308Z,15.80
2023-07-20T03:31:33.297Z,15.80
2023-07-20T03:34:00.173Z,15.80
2023-07-20T03:36:27.116Z,15.80
2023-07-20T03:38:54.030Z,15.80
2023-07-20T03:41:22.775Z,15.80
2023-07-20T03:43:50.076Z,15.80
2023-07-20T03:46:17.258Z,15.80
2023-07-20T03:48:44.267Z,15.80
2023-07-20T03:51:11.170Z,15.80
2023-07-20T03:53:38.039Z,15.70
2023-07-20T03:56:05.004Z,15.80
2023-07-20T03:58:32.602Z,15.80
2023-07-20T04:00:59.715Z,15.70
2023-07-20T04:03:27.850Z,15.70
2023-07-20T04:05:56.460Z,15.60
2023-07-20T04:08:25.739Z,15.60
2023-07-20T04:10:52.761Z,15.60
2023-07-20T04:13:20.074Z,15.60
2023-07-20T04:15:47.012Z,15.60
2023-07-20T04:18:14.165Z,15.60
2023-07-20T04:20:41.276Z,15.60
2023-07-20T04:23:08.252Z,15.60
2023-07-20T04:25:40.606Z,15.60
2023-07-20T04:28:10.967Z,15.60
2023-07-20T04:30:40.794Z,15.60
2023-07-20T04:33:07.773Z,15.50
2023-07-20T04:35:48.528Z,15.60
2023-07-20T04:38:18.499Z,15.60
2023-07-20T04:40:47.001Z,15.60
2023-07-20T04:43:18.366Z,15.60
2023-07-20T04:45:45.744Z,15.60
2023-07-20T04:48:14.988Z,15.60
2023-07-20T04:50:42.907Z,15.60
2023-07-20T04:53:15.859Z,15.60
2023-07-20T04:55:51.789Z,15.60
2023-07-20T04:58:20.689Z,15.60
2023-07-20T05:00:48.840Z,15.60
2023-07-20T05:03:15.833Z,15.60
2023-07-20T05:05:42.820Z,15.60
2023-07-20T05:08:09.684Z,15.60
2023-07-20T05:10:36.640Z,15.60
2023-07-20T05:13:03.602Z,15.70
2023-07-20T05:15:30.508Z,15.60
2023-07-20T05:17:57.411Z,15.60
2023-07-20T05:20:24.425Z,15.70
2023-07-20T05:22:51.377Z,15.70
2023-07-20T05:25:19.601Z,15.70
2023-07-20T05:27:49.376Z,15.70
2023-07-20T05:30:16.322Z,15.80
2023-07-20T05:32:43.380Z,15.80
2023-07-20T05:35:12.538Z,15.80
2023-07-20T05:37:39.717Z,15.80
2023-07-20T05:40:09.147Z,15.80
2023-07-20T05:42:36.040Z,15.80
2023-07-20T05:45:03.027Z,15.80
2023-07-20T05:47:30.310Z,16.00
2023-07-20T05:49:57.502Z,16.00
2023-07-20T05:52:24.511Z,16.00
2023-07-20T05:54:51.463Z,16.10
2023-07-20T05:57:18.507Z,16.00
2023-07-20T05:59:45.462Z,16.00
2023-07-20T06:02:13.169Z,16.10
2023-07-20T06:04:40.931Z,16.10
2023-07-20T06:07:08.902Z,16.10
2023-07-20T06:09:36.128Z,16.10
2023-07-20T06:12:03.023Z,16.20
2023-07-20T06:14:29.901Z,16.30
2023-07-20T06:16:56.722Z,16.30
2023-07-20T06:19:23.790Z,16.40
2023-07-20T06:21:50.779Z,16.40
2023-07-20T06:24:18.550Z,16.50
2023-07-20T06:26:45.568Z,16.50
2023-07-20T06:29:12.548Z,16.50
2023-07-20T06:31:39.698Z,16.50
2023-07-20T06:34:06.975Z,16.60
2023-07-20T06:36:33.944Z,16.60
2023-07-20T06:44:00.942Z,16.70
2023-07-20T06:46:28.514Z,16.70
2023-07-20T06:51:26.276Z,16.80
2023-07-20T06:53:53.698Z,16.80
2023-07-20T06:56:22.698Z,16.90
2023-07-20T06:58:51.700Z,16.90
2023-07-20T07:01:18.682Z,16.90
2023-07-20T07:03:46.470Z,17.00
2023-07-20T07:06:13.447Z,17.00
2023-07-20T07:08:40.645Z,17.10
2023-07-20T07:11:08.111Z,17.20
2023-07-20T07:13:35.992Z,17.30
2023-07-20T07:16:03.052Z,17.30
2023-07-20T07:18:31.335Z,17.40
2023-07-20T07:23:29.770Z,17.50
2023-07-20T07:25:57.357Z,17.60
2023-07-20T07:28:24.294Z,17.70
2023-07-20T07:30:51.378Z,17.70
2023-07-20T07:33:18.570Z,17.80
2023-07-20T07:35:45.861Z,17.80
2023-07-20T07:38:26.747Z,17.90
2023-07-20T07:41:00.807Z,17.90
2023-07-20T07:43:27.783Z,18.00
2023-07-20T07:45:58.293Z,18.10
2023-07-20T07:48:26.394Z,18.20
2023-07-20T07:50:53.332Z,18.20
2023-07-20T07:53:21.489Z,18.10
2023-07-20T07:55:51.662Z,18.20
2023-07-20T07:58:19.161Z,18.20
2023-07-20T08:00:46.087Z,18.40
2023-07-20T08:03:13.245Z,18.40
2023-07-20T08:05:41.056Z,18.40
2023-07-20T08:08:07.991Z,18.40
2023-07-20T08:10:34.872Z,18.50
2023-07-20T08:13:01.803Z,18.60
2023-07-20T08:15:28.788Z,18.60
2023-07-20T08:17:55.953Z,18.70
2023-07-20T08:20:27.632Z,18.80
2023-07-20T08:22:57.228Z,18.80
2023-07-20T08:25:24.172Z,18.90
2023-07-20T08:27:51.124Z,19.00
2023-07-20T08:30:18.404Z,19.00
2023-07-20T08:32:45.387Z,19.10
2023-07-20T08:35:15.645Z,19.20
2023-07-20T08:37:43.330Z,19.30
2023-07-20T08:40:11.683Z,19.50
2023-07-20T08:42:39.722Z,19.70
2023-07-20T08:45:09.851Z,19.90
2023-07-20T08:47:37.182Z,20.30
2023-07-20T08:50:07.227Z,20.70
2023-07-20T08:52:36.258Z,21.00
2023-07-20T08:55:05.178Z,21.40
2023-07-20T08:57:35.015Z,21.60
2023-07-20T09:00:06.189Z,21.70
2023-07-20T09:02:37.016Z,21.70
2023-07-20T09:05:04.590Z,21.80
2023-07-20T09:07:33.157Z,21.90
2023-07-20T09:10:00.349Z,22.10
2023-07-20T09:12:27.898Z,22.00
2023-07-20T09:14:58.471Z,22.10
2023-07-20T09:17:27.739Z,22.00
2023-07-20T09:19:55.128Z,21.70
2023-07-20T09:22:22.026Z,21.80
2023-07-20T09:24:50.206Z,21.70
2023-07-20T09:27:18.913Z,21.70
2023-07-20T09:29:53.198Z,21.70
2023-07-20T09:34:52.977Z,21.70
2023-07-20T09:37:24.216Z,21.70
2023-07-20T09:44:57.528Z,22.00
2023-07-20T09:47:29.084Z,22.00
2023-07-20T09:55:09.404Z,22.30
2023-07-20T09:57:37.186Z,22.30
2023-07-20T10:02:46.506Z,22.50
2023-07-20T10:05:17.999Z,22.50
2023-07-20T10:08:52.465Z,22.50
2023-07-20T10:10:48.023Z,22.60
2023-07-20T10:13:19.826Z,22.70
2023-07-20T10:16:00.786Z,22.60
2023-07-20T10:18:36.542Z,22.60
2023-07-20T10:23:39.573Z,22.70
2023-07-20T10:26:07.097Z,22.70
2023-07-20T10:28:34.399Z,22.80
2023-07-20T10:31:01.357Z,23.00
2023-07-20T10:33:28.527Z,23.00
2023-07-20T10:35:58.640Z,23.20
2023-07-20T10:38:54.973Z,23.30
2023-07-20T10:41:26.909Z,23.40
2023-07-20T10:44:01.901Z,23.50
2023-07-20T10:46:49.282Z,23.50
2023-07-20T10:49:16.701Z,23.60
2023-07-20T10:51:49.589Z,23.80
2023-07-20T10:54:19.834Z,23.80
2023-07-20T10:56:49.480Z,23.80
2023-07-20T10:59:21.286Z,23.80
2023-07-20T11:01:50.817Z,23.80
2023-07-20T11:04:21.558Z,23.90
2023-07-20T11:06:56.775Z,24.10
2023-07-20T11:09:27.076Z,24.10
2023-07-20T11:12:15.485Z,24.20
2023-07-20T11:14:44.220Z,24.00
2023-07-20T11:17:16.649Z,23.90
2023-07-20T11:22:14.034Z,24.00
2023-07-20T11:24:41.624Z,23.90
2023-07-20T11:27:08.653Z,23.90
2023-07-20T11:29:38.673Z,24.20
2023-07-20T11:32:06.977Z,24.30
2023-07-20T11:34:36.362Z,24.40
2023-07-20T11:39:34.929Z,24.20
2023-07-20T11:42:01.973Z,24.20
2023-07-20T11:44:30.349Z,24.30
2023-07-20T11:47:13.782Z,24.30
2023-07-20T11:49:44.448Z,24.40
2023-07-20T11:52:14.752Z,24.60
2023-07-20T11:54:47.093Z,24.50
2023-07-20T11:57:20.966Z,24.50
2023-07-20T12:00:10.130Z,24.50
2023-07-20T12:02:38.700Z,24.60
2023-07-20T12:05:06.918Z,24.60
2023-07-20T12:07:38.023Z,24.70
2023-07-20T12:10:09.949Z,24.70
2023-07-20T12:12:42.195Z,24.60
2023-07-20T12:15:27.490Z,24.60
2023-07-20T12:17:57.201Z,24.60
2023-07-20T12:20:31.951Z,24.70
2023-07-20T12:23:06.431Z,24.80
2023-07-20T12:25:47.751Z,25.00
2023-07-20T12:28:17.089Z,25.00
2023-07-20T12:30:45.523Z,25.00
2023-07-20T12:33:15.407Z,25.00
2023-07-20T12:35:42.439Z,24.80
2023-07-20T12:38:09.768Z,24.80
2023-07-20T12:40:37.504Z,24.80
2023-07-20T12:43:05.935Z,24.50
2023-07-20T12:45:33.174Z,24.30
2023-07-20T12:48:00.382Z,24.50
2023-07-20T12:50:28.593Z,24.50
2023-07-20T12:52:55.545Z,24.50
2023-07-20T12:55:22.478Z,24.50
2023-07-20T12:57:49.418Z,24.50
2023-07-20T13:00:20.402Z,24.50
2023-07-20T13:02:47.503Z,24.50
2023-07-20T13:05:14.935Z,24.50
2023-07-20T13:10:13.025Z,24.70
2023-07-20T13:12:40.365Z,24.60
2023-07-20T13:15:09.387Z,24.60
2023-07-20T13:17:39.964Z,24.60
2023-07-20T13:20:11.226Z,24.60
2023-07-20T13:22:42.085Z,24.50
2023-07-20T13:25:10.729Z,24.60
2023-07-20T13:27:38.980Z,24.90
2023-07-20T13:30:12.528Z,25.00
2023-07-20T13:32:41.469Z,25.20
2023-07-20T13:35:13.195Z,25.30
2023-07-20T13:37:40.421Z,25.50
2023-07-20T13:40:12.995Z,25.30
2023-07-20T13:42:41.629Z,25.20
2023-07-20T13:45:09.646Z,25.20
2023-07-20T13:47:37.501Z,25.10
2023-07-20T13:50:05.673Z,25.10
2023-07-20T13:55:05.533Z,25.20
2023-07-20T13:57:35.364Z,25.10
2023-07-20T14:00:05.362Z,24.80
2023-07-20T14:07:33.319Z,25.10
2023-07-20T14:12:30.169Z,25.10
2023-07-20T14:14:57.458Z,25.10
2023-07-20T14:17:24.438Z,25.20
2023-07-20T14:19:52.407Z,25.10
2023-07-20T14:22:20.176Z,25.00
2023-07-20T14:24:47.257Z,25.00
2023-07-20T14:27:14.162Z,25.00
2023-07-20T14:29:41.104Z,25.10
2023-07-20T14:32:08.736Z,25.20
2023-07-20T14:34:37.373Z,25.10
2023-07-20T14:37:07.070Z,25.00
2023-07-20T14:39:34.204Z,24.90
2023-07-20T14:42:01.213Z,24.70
2023-07-20T14:44:28.109Z,24.60
2023-07-20T14:47:10.885Z,24.70
2023-07-20T14:49:38.431Z,24.60
2023-07-20T14:52:15.679Z,24.60
2023-07-20T14:54:43.200Z,24.50
2023-07-20T14:57:15.261Z,24.50
2023-07-20T14:59:43.070Z,24.40
2023-07-20T15:02:10.125Z,24.20
2023-07-20T15:04:37.042Z,24.20
2023-07-20T15:07:04.775Z,24.30
2023-07-20T15:09:32.331Z,24.40
2023-07-20T15:11:59.297Z,24.30
2023-07-20T15:14:26.181Z,24.20
2023-07-20T15:16:53.066Z,24.20
2023-07-20T15:19:19.923Z,24.20
2023-07-20T15:21:46.957Z,24.20
2023-07-20T15:24:13.960Z,24.20
2023-07-20T15:26:42.346Z,24.30
2023-07-20T15:34:26.150Z,24.30
2023-07-20T15:36:53.156Z,24.30
2023-07-20T15:39:21.219Z,24.10
2023-07-20T15:41:49.287Z,23.90
2023-07-20T15:44:16.431Z,23.80
2023-07-20T15:46:52.007Z,23.80
2023-07-20T15:49:19.015Z,23.60
2023-07-20T15:51:47.525Z,23.40
2023-07-20T15:54:16.274Z,23.40
2023-07-20T15:56:44.670Z,23.40
2023-07-20T15:59:14.882Z,23.50
2023-07-20T16:01:43.203Z,23.30
2023-07-20T16:04:16.787Z,23.40
2023-07-20T16:06:43.838Z,23.30
2023-07-20T16:09:10.733Z,23.20
2023-07-20T16:11:38.559Z,22.90
2023-07-20T16:14:07.947Z,23.20
2023-07-20T16:16:36.791Z,23.30
2023-07-20T16:19:04.951Z,23.00
2023-07-20T16:21:33.399Z,23.10
2023-07-20T16:24:01.591Z,22.90
2023-07-20T16:26:28.631Z,22.90
2023-07-20T16:31:25.737Z,23.10
2023-07-20T16:36:57.141Z,23.50
2023-07-20T16:44:21.377Z,24.00
2023-07-20T16:49:18.161Z,24.30
2023-07-20T16:51:45.065Z,24.50
2023-07-20T16:54:12.053Z,24.60
2023-07-20T16:56:38.996Z,24.70
2023-07-20T16:59:05.908Z,24.70
2023-07-20T17:01:34.316Z,25.00
2023-07-20T17:04:01.457Z,24.80
2023-07-20T17:06:28.498Z,25.00
2023-07-20T17:08:56.448Z,25.20
2023-07-20T17:11:24.345Z,25.20
2023-07-20T17:13:51.550Z,25.30
2023-07-20T17:16:18.550Z,25.30
2023-07-20T17:18:45.417Z,25.50
2023-07-20T17:21:12.734Z,25.40
2023-07-20T17:31:09.345Z,25.00
2023-07-20T17:33:36.350Z,25.00
2023-07-20T17:41:03.282Z,25.10
2023-07-20T17:43:30.187Z,25.10
2023-07-20T17:47:20.227Z,25.00
2023-07-20T17:48:44.685Z,25.00
2023-07-20T17:51:11.764Z,24.90
2023-07-20T17:53:38.758Z,25.10
2023-07-20T17:56:07.140Z,25.10
2023-07-20T17:58:34.505Z,25.10
2023-07-20T18:01:01.857Z,25.10
2023-07-20T18:03:29.088Z,25.00
2023-07-20T18:05:57.070Z,25.00
2023-07-20T18:08:24.560Z,25.00
2023-07-20T18:10:51.486Z,24.80
2023-07-20T18:13:18.818Z,24.90
2023-07-20T18:15:46.060Z,24.90
2023-07-20T18:18:13.065Z,25.00
2023-07-20T18:20:40.943Z,25.00
2023-07-20T18:23:07.974Z,24.80
2023-07-20T18:25:34.972Z,24.80
2023-07-20T18:28:01.849Z,24.70
2023-07-20T18:30:34.026Z,24.60
2023-07-20T18:33:02.037Z,24.60
2023-07-20T18:35:31.090Z,24.60
2023-07-20T18:37:58.583Z,24.50
2023-07-20T18:40:26.848Z,24.50
2023-07-20T18:42:57.015Z,24.50
2023-07-20T18:45:23.925Z,24.30
2023-07-20T18:47:50.985Z,24.30
2023-07-20T18:50:18.061Z,24.20
2023-07-20T18:52:45.627Z,24.10
2023-07-20T18:55:12.778Z,24.10
2023-07-20T18:57:41.936Z,24.00
2023-07-20T19:00:11.215Z,24.00
2023-07-20T19:02:38.467Z,24.00
2023-07-20T19:05:06.551Z,24.00
2023-07-20T19:07:33.604Z,24.00
2023-07-20T19:10:00.576Z,24.00
2023-07-20T19:12:27.510Z,23.90
2023-07-20T19:14:54.449Z,23.70
2023-07-20T19:17:25.385Z,23.80
2023-07-20T19:19:53.063Z,23.80
2023-07-20T19:22:19.986Z,23.90
2023-07-20T19:24:47.824Z,23.80
2023-07-20T19:27:15.942Z,23.70
2023-07-20T19:29:43.225Z,23.60
2023-07-20T19:32:11.664Z,23.50
2023-07-20T19:34:38.764Z,23.10
2023-07-20T19:37:06.340Z,23.10
2023-07-20T19:39:33.299Z,23.10
2023-07-20T19:42:00.367Z,23.00
2023-07-20T19:44:28.134Z,23.00
2023-07-20T19:46:56.288Z,23.00
2023-07-20T19:49:24.709Z,23.00
2023-07-20T19:51:52.704Z,22.90
2023-07-20T19:56:49.429Z,22.70
2023-07-20T19:59:16.494Z,22.70
2023-07-20T20:01:44.810Z,22.60
2023-07-20T20:06:43.697Z,22.70
2023-07-20T20:09:10.682Z,22.80
2023-07-20T20:11:37.757Z,22.40
2023-07-20T20:14:04.831Z,22.10
2023-07-20T20:16:32.368Z,21.90
2023-07-20T20:18:59.303Z,21.80
2023-07-20T20:21:26.519Z,21.70
2023-07-20T20:23:53.830Z,21.60
2023-07-20T20:26:20.960Z,21.60
2023-07-20T20:28:48.129Z,21.40
2023-07-20T20:31:15.075Z,21.40
2023-07-20T20:33:42.613Z,21.40
2023-07-20T20:36:09.702Z,21.60
2023-07-20T20:38:36.824Z,21.70
2023-07-20T20:41:06.823Z,21.80
2023-07-20T20:43:33.925Z,21.80
2023-07-20T20:46:06.686Z,21.70
2023-07-20T20:48:38.804Z,21.70
2023-07-20T20:51:06.038Z,21.30
2023-07-20T20:53:33.068Z,21.10
2023-07-20T20:56:01.118Z,21.00
2023-07-20T20:58:28.473Z,21.00
2023-07-20T21:01:00.840Z,21.00
2023-07-20T21:03:30.558Z,20.80
2023-07-20T21:05:58.868Z,20.60
2023-07-20T21:08:28.144Z,20.60
2023-07-20T21:10:59.322Z,20.60
2023-07-20T21:13:26.838Z,20.60
2023-07-20T21:15:55.205Z,20.70
2023-07-20T21:18:22.513Z,20.60
2023-07-20T21:20:49.875Z,20.60
2023-07-20T21:23:20.252Z,20.50
2023-07-20T21:25:48.371Z,20.50
2023-07-20T21:28:15.432Z,20.40
2023-07-20T21:30:45.589Z,20.30
2023-07-20T21:33:14.954Z,20.00
2023-07-20T21:35:42.546Z,19.80
2023-07-20T21:38:09.562Z,19.70
2023-07-20T21:40:39.189Z,19.60
2023-07-20T21:43:06.106Z,19.70
2023-07-20T21:45:33.253Z,19.80
2023-07-20T21:48:00.386Z,19.80
2023-07-20T21:50:27.380Z,19.90
2023-07-20T21:52:54.580Z,19.80
2023-07-20T21:55:21.865Z,19.70
2023-07-20T21:57:48.900Z,19.60
2023-07-20T22:00:16.344Z,19.50
2023-07-20T22:02:43.397Z,19.50
2023-07-20T22:05:10.689Z,19.30
2023-07-20T22:07:38.940Z,19.30
2023-07-20T22:10:06.674Z,19.30
2023-07-20T22:12:34.881Z,19.30
2023-07-20T22:15:01.869Z,19.30
2023-07-20T22:17:28.875Z,19.10
2023-07-20T22:19:55.804Z,19.00
2023-07-20T22:22:22.673Z,19.00
2023-07-20T22:24:49.733Z,18.70
2023-07-20T22:27:16.703Z,18.50
2023-07-20T22:29:43.688Z,18.50
2023-07-20T22:32:11.342Z,18.60
2023-07-20T22:34:38.213Z,18.70
2023-07-20T22:37:06.111Z,18.70
2023-07-20T22:39:34.004Z,18.70
2023-07-20T22:42:04.661Z,18.80
2023-07-20T22:44:32.401Z,18.60
2023-07-20T22:46:59.935Z,18.50
2023-07-20T22:49:26.962Z,18.50
2023-07-20T22:51:53.972Z,18.50
2023-07-20T22:54:20.993Z,18.50
2023-07-20T22:56:48.311Z,18.50
2023-07-20T22:59:15.409Z,18.40
2023-07-20T23:01:45.204Z,18.30
2023-07-20T23:04:15.442Z,18.30
2023-07-20T23:06:42.663Z,18.20
2023-07-20T23:09:10.402Z,18.00
2023-07-20T23:11:38.057Z,18.00
2023-07-20T23:14:05.066Z,18.10
2023-07-20T23:16:32.209Z,17.90
2023-07-20T23:18:59.536Z,17.90
2023-07-20T23:21:26.523Z,17.90
2023-07-20T23:23:53.396Z,17.90
2023-07-20T23:26:20.433Z,17.80
2023-07-20T23:28:49.933Z,17.80
2023-07-20T23:31:17.542Z,17.80
2023-07-20T23:33:44.653Z,17.80
2023-07-20T23:36:11.595Z,17.70
2023-07-20T23:38:40.610Z,17.70
2023-07-20T23:41:07.958Z,17.60
2023-07-20T23:43:36.778Z,17.50
2023-07-20T23:46:05.472Z,17.40
2023-07-20T23:48:42.059Z,17.20
2023-07-20T23:51:20.790Z,17.00
2023-07-20T23:53:48.801Z,17.10
2023-07-20T23:56:16.260Z,17.10
2023-07-20T23:58:43.954Z,17.10
